sensor_id;sensor_type;location;lat;lon;timestamp;P1;durP1;ratioP1;P2;durP2;ratioP2
45932;SDS011;51011;46.790;17.184;2022-09-24T00:00:42;8.15;;;6.43;;
45932;SDS011;51011;46.790;17.184;2022-09-24T00:03:09;8.25;;;6.20;;
45932;SDS011;51011;46.790;17.184;2022-09-24T00:05:40;8.85;;;6.35;;
45932;SDS011;51011;46.790;17.184;2022-09-24T00:08:06;8.45;;;6.20;;
45932;SDS011;51011;46.790;17.184;2022-09-24T00:10:36;6.97;;;6.15;;
45932;SDS011;51011;46.790;17.184;2022-09-24T00:13:03;8.00;;;6.18;;
45932;SDS011;51011;46.790;17.184;2022-09-24T00:15:28;8.18;;;6.35;;
45932;SDS011;51011;46.790;17.184;2022-09-24T00:17:54;10.52;;;7.00;;
45932;SDS011;51011;46.790;17.184;2022-09-24T00:20:19;8.40;;;6.45;;
45932;SDS011;51011;46.790;17.184;2022-09-24T00:22:46;7.72;;;6.38;;
45932;SDS011;51011;46.790;17.184;2022-09-24T00:25:11;9.48;;;6.45;;
45932;SDS011;51011;46.790;17.184;2022-09-24T00:30:21;8.32;;;6.63;;
45932;SDS011;51011;46.790;17.184;2022-09-24T00:32:46;9.18;;;6.00;;
45932;SDS011;51011;46.790;17.184;2022-09-24T00:35:12;7.68;;;6.53;;
45932;SDS011;51011;46.790;17.184;2022-09-24T00:37:37;10.50;;;6.90;;
45932;SDS011;51011;46.790;17.184;2022-09-24T00:40:03;9.07;;;7.30;;
45932;SDS011;51011;46.790;17.184;2022-09-24T00:42:30;7.80;;;6.45;;
45932;SDS011;51011;46.790;17.184;2022-09-24T00:44:56;8.30;;;6.78;;
45932;SDS011;51011;46.790;17.184;2022-09-24T00:49:51;8.32;;;6.70;;
45932;SDS011;51011;46.790;17.184;2022-09-24T00:52:30;8.73;;;6.78;;
45932;SDS011;51011;46.790;17.184;2022-09-24T00:54:57;7.68;;;6.63;;
45932;SDS011;51011;46.790;17.184;2022-09-24T00:57:22;10.23;;;6.93;;
45932;SDS011;51011;46.790;17.184;2022-09-24T00:59:48;8.20;;;6.03;;
45932;SDS011;51011;46.790;17.184;2022-09-24T01:08:19;8.95;;;7.00;;
45932;SDS011;51011;46.790;17.184;2022-09-24T01:13:46;8.00;;;6.88;;
45932;SDS011;51011;46.790;17.184;2022-09-24T01:21:54;10.13;;;5.97;;
45932;SDS011;51011;46.790;17.184;2022-09-24T01:27:02;8.40;;;6.38;;
45932;SDS011;51011;46.790;17.184;2022-09-24T01:29:35;8.68;;;6.45;;
45932;SDS011;51011;46.790;17.184;2022-09-24T01:32:10;8.20;;;6.93;;
45932;SDS011;51011;46.790;17.184;2022-09-24T01:34:56;9.05;;;6.22;;
45932;SDS011;51011;46.790;17.184;2022-09-24T01:37:24;9.32;;;6.75;;
45932;SDS011;51011;46.790;17.184;2022-09-24T01:39:52;8.35;;;6.78;;
45932;SDS011;51011;46.790;17.184;2022-09-24T01:42:19;7.93;;;6.05;;
45932;SDS011;51011;46.790;17.184;2022-09-24T01:44:46;7.60;;;6.22;;
45932;SDS011;51011;46.790;17.184;2022-09-24T01:47:14;9.98;;;7.15;;
45932;SDS011;51011;46.790;17.184;2022-09-24T01:49:43;7.35;;;5.90;;
45932;SDS011;51011;46.790;17.184;2022-09-24T01:52:09;8.25;;;6.75;;
45932;SDS011;51011;46.790;17.184;2022-09-24T01:54:40;9.30;;;7.25;;
45932;SDS011;51011;46.790;17.184;2022-09-24T01:57:10;8.30;;;6.53;;
45932;SDS011;51011;46.790;17.184;2022-09-24T01:59:56;9.23;;;6.40;;
45932;SDS011;51011;46.790;17.184;2022-09-24T02:02:28;8.18;;;6.80;;
45932;SDS011;51011;46.790;17.184;2022-09-24T02:07:51;9.05;;;6.30;;
45932;SDS011;51011;46.790;17.184;2022-09-24T02:10:17;8.38;;;6.63;;
45932;SDS011;51011;46.790;17.184;2022-09-24T02:12:48;8.25;;;6.97;;
45932;SDS011;51011;46.790;17.184;2022-09-24T02:15:36;8.43;;;6.72;;
45932;SDS011;51011;46.790;17.184;2022-09-24T02:18:04;8.68;;;6.25;;
45932;SDS011;51011;46.790;17.184;2022-09-24T02:20:32;7.93;;;6.10;;
45932;SDS011;51011;46.790;17.184;2022-09-24T02:23:00;9.02;;;6.30;;
45932;SDS011;51011;46.790;17.184;2022-09-24T02:25:32;7.90;;;6.35;;
45932;SDS011;51011;46.790;17.184;2022-09-24T02:28:01;7.85;;;6.35;;
45932;SDS011;51011;46.790;17.184;2022-09-24T02:30:27;7.75;;;6.22;;
45932;SDS011;51011;46.790;17.184;2022-09-24T02:32:53;7.10;;;6.00;;
45932;SDS011;51011;46.790;17.184;2022-09-24T02:35:20;9.48;;;6.70;;
45932;SDS011;51011;46.790;17.184;2022-09-24T02:37:46;9.52;;;7.07;;
45932;SDS011;51011;46.790;17.184;2022-09-24T02:40:12;8.38;;;6.65;;
45932;SDS011;51011;46.790;17.184;2022-09-24T02:42:39;9.93;;;6.53;;
45932;SDS011;51011;46.790;17.184;2022-09-24T02:45:06;9.30;;;6.78;;
45932;SDS011;51011;46.790;17.184;2022-09-24T02:47:32;8.98;;;6.30;;
45932;SDS011;51011;46.790;17.184;2022-09-24T02:49:58;8.50;;;6.05;;
45932;SDS011;51011;46.790;17.184;2022-09-24T02:52:24;9.65;;;6.43;;
45932;SDS011;51011;46.790;17.184;2022-09-24T02:54:49;9.88;;;7.40;;
45932;SDS011;51011;46.790;17.184;2022-09-24T02:57:16;6.47;;;5.78;;
45932;SDS011;51011;46.790;17.184;2022-09-24T02:59:42;7.88;;;6.45;;
45932;SDS011;51011;46.790;17.184;2022-09-24T03:02:08;9.25;;;6.45;;
45932;SDS011;51011;46.790;17.184;2022-09-24T03:04:34;8.65;;;6.43;;
45932;SDS011;51011;46.790;17.184;2022-09-24T03:06:59;7.80;;;6.32;;
45932;SDS011;51011;46.790;17.184;2022-09-24T03:09:25;7.45;;;6.45;;
45932;SDS011;51011;46.790;17.184;2022-09-24T03:11:51;8.38;;;7.00;;
45932;SDS011;51011;46.790;17.184;2022-09-24T03:14:16;8.75;;;6.40;;
45932;SDS011;51011;46.790;17.184;2022-09-24T03:16:42;8.05;;;6.57;;
45932;SDS011;51011;46.790;17.184;2022-09-24T03:19:07;8.23;;;6.70;;
45932;SDS011;51011;46.790;17.184;2022-09-24T03:21:33;8.13;;;6.35;;
45932;SDS011;51011;46.790;17.184;2022-09-24T03:23:58;12.73;;;6.93;;
45932;SDS011;51011;46.790;17.184;2022-09-24T03:26:28;8.85;;;6.53;;
45932;SDS011;51011;46.790;17.184;2022-09-24T03:28:54;8.65;;;7.10;;
45932;SDS011;51011;46.790;17.184;2022-09-24T03:31:19;9.02;;;6.75;;
45932;SDS011;51011;46.790;17.184;2022-09-24T03:33:48;9.73;;;6.72;;
45932;SDS011;51011;46.790;17.184;2022-09-24T03:36:21;8.70;;;6.95;;
45932;SDS011;51011;46.790;17.184;2022-09-24T03:38:49;9.98;;;7.03;;
45932;SDS011;51011;46.790;17.184;2022-09-24T03:41:16;9.77;;;6.45;;
45932;SDS011;51011;46.790;17.184;2022-09-24T03:43:42;9.02;;;7.00;;
45932;SDS011;51011;46.790;17.184;2022-09-24T03:46:08;10.02;;;7.05;;
45932;SDS011;51011;46.790;17.184;2022-09-24T03:48:34;10.02;;;7.00;;
45932;SDS011;51011;46.790;17.184;2022-09-24T03:51:04;7.97;;;6.60;;
45932;SDS011;51011;46.790;17.184;2022-09-24T03:53:31;8.63;;;6.68;;
45932;SDS011;51011;46.790;17.184;2022-09-24T03:55:57;10.80;;;7.28;;
45932;SDS011;51011;46.790;17.184;2022-09-24T03:58:23;8.90;;;7.28;;
45932;SDS011;51011;46.790;17.184;2022-09-24T04:00:52;8.90;;;6.95;;
45932;SDS011;51011;46.790;17.184;2022-09-24T04:03:19;9.65;;;6.70;;
45932;SDS011;51011;46.790;17.184;2022-09-24T04:05:48;9.40;;;6.40;;
45932;SDS011;51011;46.790;17.184;2022-09-24T04:08:16;9.57;;;6.88;;
45932;SDS011;51011;46.790;17.184;2022-09-24T04:10:46;8.77;;;6.85;;
45932;SDS011;51011;46.790;17.184;2022-09-24T04:13:13;8.10;;;6.45;;
45932;SDS011;51011;46.790;17.184;2022-09-24T04:15:39;8.77;;;6.63;;
45932;SDS011;51011;46.790;17.184;2022-09-24T04:18:04;8.77;;;6.45;;
45932;SDS011;51011;46.790;17.184;2022-09-24T04:20:30;9.38;;;6.85;;
45932;SDS011;51011;46.790;17.184;2022-09-24T04:22:58;8.80;;;6.63;;
45932;SDS011;51011;46.790;17.184;2022-09-24T04:25:24;9.25;;;6.60;;
45932;SDS011;51011;46.790;17.184;2022-09-24T04:27:55;8.57;;;5.88;;
45932;SDS011;51011;46.790;17.184;2022-09-24T04:30:22;9.15;;;6.35;;
45932;SDS011;51011;46.790;17.184;2022-09-24T04:32:48;7.80;;;6.40;;
45932;SDS011;51011;46.790;17.184;2022-09-24T04:35:16;8.57;;;6.68;;
45932;SDS011;51011;46.790;17.184;2022-09-24T04:37:43;7.25;;;5.78;;
45932;SDS011;51011;46.790;17.184;2022-09-24T04:40:08;8.15;;;6.57;;
45932;SDS011;51011;46.790;17.184;2022-09-24T04:42:39;7.97;;;6.05;;
45932;SDS011;51011;46.790;17.184;2022-09-24T04:45:06;6.80;;;5.57;;
45932;SDS011;51011;46.790;17.184;2022-09-24T04:47:33;8.25;;;5.82;;
45932;SDS011;51011;46.790;17.184;2022-09-24T04:49:59;8.65;;;6.43;;
45932;SDS011;51011;46.790;17.184;2022-09-24T04:52:27;8.88;;;6.40;;
45932;SDS011;51011;46.790;17.184;2022-09-24T04:54:56;7.40;;;5.90;;
45932;SDS011;51011;46.790;17.184;2022-09-24T04:57:24;7.65;;;6.10;;
45932;SDS011;51011;46.790;17.184;2022-09-24T04:59:50;7.20;;;5.85;;
45932;SDS011;51011;46.790;17.184;2022-09-24T05:02:16;8.70;;;6.00;;
45932;SDS011;51011;46.790;17.184;2022-09-24T05:04:42;9.20;;;5.45;;
45932;SDS011;51011;46.790;17.184;2022-09-24T05:07:08;8.27;;;6.30;;
45932;SDS011;51011;46.790;17.184;2022-09-24T05:09:34;8.77;;;6.10;;
45932;SDS011;51011;46.790;17.184;2022-09-24T05:12:00;7.40;;;6.05;;
45932;SDS011;51011;46.790;17.184;2022-09-24T05:14:26;7.72;;;6.53;;
45932;SDS011;51011;46.790;17.184;2022-09-24T05:16:52;11.30;;;6.40;;
45932;SDS011;51011;46.790;17.184;2022-09-24T05:19:17;7.35;;;6.13;;
45932;SDS011;51011;46.790;17.184;2022-09-24T05:21:43;8.18;;;6.03;;
45932;SDS011;51011;46.790;17.184;2022-09-24T05:24:09;7.90;;;6.30;;
45932;SDS011;51011;46.790;17.184;2022-09-24T05:26:34;7.28;;;6.18;;
45932;SDS011;51011;46.790;17.184;2022-09-24T05:29:18;8.38;;;6.43;;
45932;SDS011;51011;46.790;17.184;2022-09-24T05:31:44;8.00;;;6.20;;
45932;SDS011;51011;46.790;17.184;2022-09-24T05:34:09;9.05;;;6.43;;
45932;SDS011;51011;46.790;17.184;2022-09-24T05:36:35;8.57;;;6.10;;
45932;SDS011;51011;46.790;17.184;2022-09-24T05:39:00;7.43;;;6.32;;
45932;SDS011;51011;46.790;17.184;2022-09-24T05:41:26;7.18;;;6.05;;
45932;SDS011;51011;46.790;17.184;2022-09-24T05:43:51;7.47;;;6.05;;
45932;SDS011;51011;46.790;17.184;2022-09-24T05:46:17;7.07;;;6.07;;
45932;SDS011;51011;46.790;17.184;2022-09-24T05:48:42;9.95;;;6.57;;
45932;SDS011;51011;46.790;17.184;2022-09-24T05:51:08;7.90;;;6.63;;
45932;SDS011;51011;46.790;17.184;2022-09-24T05:53:33;8.10;;;5.97;;
45932;SDS011;51011;46.790;17.184;2022-09-24T05:55:59;8.75;;;6.30;;
45932;SDS011;51011;46.790;17.184;2022-09-24T05:58:25;7.95;;;6.35;;
45932;SDS011;51011;46.790;17.184;2022-09-24T06:00:51;7.85;;;6.18;;
45932;SDS011;51011;46.790;17.184;2022-09-24T06:03:17;7.80;;;6.15;;
45932;SDS011;51011;46.790;17.184;2022-09-24T06:05:44;9.18;;;6.40;;
45932;SDS011;51011;46.790;17.184;2022-09-24T06:08:10;8.27;;;6.18;;
45932;SDS011;51011;46.790;17.184;2022-09-24T06:10:36;8.00;;;6.10;;
45932;SDS011;51011;46.790;17.184;2022-09-24T06:13:02;7.75;;;5.90;;
45932;SDS011;51011;46.790;17.184;2022-09-24T06:15:28;8.05;;;6.20;;
45932;SDS011;51011;46.790;17.184;2022-09-24T06:17:55;7.90;;;5.90;;
45932;SDS011;51011;46.790;17.184;2022-09-24T06:20:21;7.47;;;6.25;;
45932;SDS011;51011;46.790;17.184;2022-09-24T06:22:46;7.68;;;6.10;;
45932;SDS011;51011;46.790;17.184;2022-09-24T06:25:12;7.05;;;5.60;;
45932;SDS011;51011;46.790;17.184;2022-09-24T06:27:38;7.47;;;6.00;;
45932;SDS011;51011;46.790;17.184;2022-09-24T06:30:03;9.00;;;5.20;;
45932;SDS011;51011;46.790;17.184;2022-09-24T06:32:29;7.13;;;5.68;;
45932;SDS011;51011;46.790;17.184;2022-09-24T06:34:55;7.90;;;5.95;;
45932;SDS011;51011;46.790;17.184;2022-09-24T06:37:20;8.40;;;6.53;;
45932;SDS011;51011;46.790;17.184;2022-09-24T06:39:46;8.00;;;5.68;;
45932;SDS011;51011;46.790;17.184;2022-09-24T06:42:12;7.32;;;5.72;;
45932;SDS011;51011;46.790;17.184;2022-09-24T06:44:37;7.10;;;5.55;;
45932;SDS011;51011;46.790;17.184;2022-09-24T06:47:03;8.23;;;5.90;;
45932;SDS011;51011;46.790;17.184;2022-09-24T06:49:28;7.65;;;6.10;;
45932;SDS011;51011;46.790;17.184;2022-09-24T06:51:54;8.05;;;6.10;;
45932;SDS011;51011;46.790;17.184;2022-09-24T06:54:20;7.70;;;5.60;;
45932;SDS011;51011;46.790;17.184;2022-09-24T06:56:46;7.18;;;6.15;;
45932;SDS011;51011;46.790;17.184;2022-09-24T06:59:12;7.22;;;6.00;;
45932;SDS011;51011;46.790;17.184;2022-09-24T07:01:38;10.05;;;5.60;;
45932;SDS011;51011;46.790;17.184;2022-09-24T07:04:03;8.35;;;5.93;;
45932;SDS011;51011;46.790;17.184;2022-09-24T07:06:29;7.65;;;5.85;;
45932;SDS011;51011;46.790;17.184;2022-09-24T07:09:14;6.65;;;5.55;;
45932;SDS011;51011;46.790;17.184;2022-09-24T07:11:40;8.57;;;6.80;;
45932;SDS011;51011;46.790;17.184;2022-09-24T07:14:05;7.40;;;5.50;;
45932;SDS011;51011;46.790;17.184;2022-09-24T07:16:31;7.00;;;5.55;;
45932;SDS011;51011;46.790;17.184;2022-09-24T07:18:56;7.38;;;5.47;;
45932;SDS011;51011;46.790;17.184;2022-09-24T07:21:22;9.13;;;5.85;;
45932;SDS011;51011;46.790;17.184;2022-09-24T07:23:48;7.82;;;5.90;;
45932;SDS011;51011;46.790;17.184;2022-09-24T07:26:13;8.80;;;5.20;;
45932;SDS011;51011;46.790;17.184;2022-09-24T07:28:39;8.02;;;5.45;;
45932;SDS011;51011;46.790;17.184;2022-09-24T07:31:04;7.80;;;5.90;;
45932;SDS011;51011;46.790;17.184;2022-09-24T07:33:30;6.22;;;5.50;;
45932;SDS011;51011;46.790;17.184;2022-09-24T07:35:56;6.78;;;5.78;;
45932;SDS011;51011;46.790;17.184;2022-09-24T07:38:21;6.93;;;5.60;;
45932;SDS011;51011;46.790;17.184;2022-09-24T07:40:47;7.57;;;5.57;;
45932;SDS011;51011;46.790;17.184;2022-09-24T07:43:12;6.78;;;4.82;;
45932;SDS011;51011;46.790;17.184;2022-09-24T07:45:38;6.85;;;5.50;;
45932;SDS011;51011;46.790;17.184;2022-09-24T07:48:05;8.40;;;5.55;;
45932;SDS011;51011;46.790;17.184;2022-09-24T07:50:32;7.00;;;5.47;;
45932;SDS011;51011;46.790;17.184;2022-09-24T07:52:58;7.88;;;5.18;;
45932;SDS011;51011;46.790;17.184;2022-09-24T07:55:27;6.88;;;5.50;;
45932;SDS011;51011;46.790;17.184;2022-09-24T07:57:53;8.10;;;5.53;;
45932;SDS011;51011;46.790;17.184;2022-09-24T08:00:19;8.15;;;5.40;;
45932;SDS011;51011;46.790;17.184;2022-09-24T08:02:46;5.90;;;5.03;;
45932;SDS011;51011;46.790;17.184;2022-09-24T08:05:12;7.05;;;5.40;;
45932;SDS011;51011;46.790;17.184;2022-09-24T08:07:40;6.75;;;4.82;;
45932;SDS011;51011;46.790;17.184;2022-09-24T08:10:05;7.90;;;5.57;;
45932;SDS011;51011;46.790;17.184;2022-09-24T08:12:31;6.90;;;5.03;;
45932;SDS011;51011;46.790;17.184;2022-09-24T08:14:57;6.68;;;4.65;;
45932;SDS011;51011;46.790;17.184;2022-09-24T08:17:22;6.38;;;4.85;;
45932;SDS011;51011;46.790;17.184;2022-09-24T08:19:48;5.82;;;4.63;;
45932;SDS011;51011;46.790;17.184;2022-09-24T08:22:15;7.03;;;4.82;;
45932;SDS011;51011;46.790;17.184;2022-09-24T08:24:41;5.93;;;4.70;;
45932;SDS011;51011;46.790;17.184;2022-09-24T08:27:07;6.57;;;4.28;;
45932;SDS011;51011;46.790;17.184;2022-09-24T08:29:33;5.53;;;4.35;;
45932;SDS011;51011;46.790;17.184;2022-09-24T08:31:59;6.13;;;4.97;;
45932;SDS011;51011;46.790;17.184;2022-09-24T08:34:25;5.65;;;4.88;;
45932;SDS011;51011;46.790;17.184;2022-09-24T08:36:50;6.78;;;4.32;;
45932;SDS011;51011;46.790;17.184;2022-09-24T08:39:16;6.85;;;4.68;;
45932;SDS011;51011;46.790;17.184;2022-09-24T08:41:52;7.88;;;4.85;;
45932;SDS011;51011;46.790;17.184;2022-09-24T08:44:25;5.85;;;4.53;;
45932;SDS011;51011;46.790;17.184;2022-09-24T08:52:38;7.70;;;4.85;;
45932;SDS011;51011;46.790;17.184;2022-09-24T08:58:10;9.10;;;4.93;;
45932;SDS011;51011;46.790;17.184;2022-09-24T09:03:36;6.47;;;4.63;;
45932;SDS011;51011;46.790;17.184;2022-09-24T09:08:57;6.75;;;4.40;;
45932;SDS011;51011;46.790;17.184;2022-09-24T09:11:51;5.75;;;4.15;;
45932;SDS011;51011;46.790;17.184;2022-09-24T09:14:30;5.90;;;4.75;;
45932;SDS011;51011;46.790;17.184;2022-09-24T09:17:02;6.07;;;4.78;;
45932;SDS011;51011;46.790;17.184;2022-09-24T09:19:34;5.70;;;4.32;;
45932;SDS011;51011;46.790;17.184;2022-09-24T09:22:22;7.13;;;4.50;;
45932;SDS011;51011;46.790;17.184;2022-09-24T09:24:49;6.68;;;4.70;;
45932;SDS011;51011;46.790;17.184;2022-09-24T09:27:16;5.45;;;4.45;;
45932;SDS011;51011;46.790;17.184;2022-09-24T09:29:43;5.63;;;3.83;;
45932;SDS011;51011;46.790;17.184;2022-09-24T09:41:22;5.45;;;4.18;;
45932;SDS011;51011;46.790;17.184;2022-09-24T09:43:24;6.53;;;4.20;;
45932;SDS011;51011;46.790;17.184;2022-09-24T09:48:20;4.38;;;3.70;;
45932;SDS011;51011;46.790;17.184;2022-09-24T09:50:47;4.85;;;3.75;;
45932;SDS011;51011;46.790;17.184;2022-09-24T09:53:17;6.63;;;4.22;;
45932;SDS011;51011;46.790;17.184;2022-09-24T09:58:30;4.32;;;3.33;;
45932;SDS011;51011;46.790;17.184;2022-09-24T10:01:07;5.53;;;3.60;;
45932;SDS011;51011;46.790;17.184;2022-09-24T10:06:10;4.80;;;3.55;;
45932;SDS011;51011;46.790;17.184;2022-09-24T10:08:37;4.68;;;3.63;;
45932;SDS011;51011;46.790;17.184;2022-09-24T10:11:05;5.38;;;3.17;;
45932;SDS011;51011;46.790;17.184;2022-09-24T10:13:32;6.07;;;3.42;;
45932;SDS011;51011;46.790;17.184;2022-09-24T10:18:29;5.75;;;3.28;;
45932;SDS011;51011;46.790;17.184;2022-09-24T10:20:57;4.72;;;2.88;;
45932;SDS011;51011;46.790;17.184;2022-09-24T10:23:31;5.30;;;3.28;;
45932;SDS011;51011;46.790;17.184;2022-09-24T10:26:00;4.05;;;3.13;;
45932;SDS011;51011;46.790;17.184;2022-09-24T10:28:26;5.63;;;3.38;;
45932;SDS011;51011;46.790;17.184;2022-09-24T10:31:24;4.85;;;3.33;;
45932;SDS011;51011;46.790;17.184;2022-09-24T10:33:52;5.43;;;3.38;;
45932;SDS011;51011;46.790;17.184;2022-09-24T10:36:20;4.13;;;3.28;;
45932;SDS011;51011;46.790;17.184;2022-09-24T10:38:47;5.93;;;3.70;;
45932;SDS011;51011;46.790;17.184;2022-09-24T10:43:48;4.30;;;3.45;;
45932;SDS011;51011;46.790;17.184;2022-09-24T10:49:01;5.40;;;3.55;;
45932;SDS011;51011;46.790;17.184;2022-09-24T10:52:05;4.55;;;3.53;;
45932;SDS011;51011;46.790;17.184;2022-09-24T11:00:15;4.95;;;3.63;;
45932;SDS011;51011;46.790;17.184;2022-09-24T11:02:49;4.20;;;3.30;;
45932;SDS011;51011;46.790;17.184;2022-09-24T11:05:21;6.47;;;3.63;;
45932;SDS011;51011;46.790;17.184;2022-09-24T11:37:58;4.55;;;3.92;;
45932;SDS011;51011;46.790;17.184;2022-09-24T11:43:57;5.00;;;3.47;;
45932;SDS011;51011;46.790;17.184;2022-09-24T11:51:53;6.10;;;3.80;;
45932;SDS011;51011;46.790;17.184;2022-09-24T11:57:49;3.90;;;3.20;;
45932;SDS011;51011;46.790;17.184;2022-09-24T12:00:18;7.35;;;3.90;;
45932;SDS011;51011;46.790;17.184;2022-09-24T12:02:49;5.68;;;3.65;;
45932;SDS011;51011;46.790;17.184;2022-09-24T12:05:31;4.80;;;3.47;;
45932;SDS011;51011;46.790;17.184;2022-09-24T12:08:02;4.95;;;3.80;;
45932;SDS011;51011;46.790;17.184;2022-09-24T12:10:34;4.68;;;3.25;;
45932;SDS011;51011;46.790;17.184;2022-09-24T12:13:15;4.57;;;3.17;;
45932;SDS011;51011;46.790;17.184;2022-09-24T12:15:49;4.35;;;3.40;;
45932;SDS011;51011;46.790;17.184;2022-09-24T12:18:22;6.82;;;3.55;;
45932;SDS011;51011;46.790;17.184;2022-09-24T12:20:54;4.10;;;3.40;;
45932;SDS011;51011;46.790;17.184;2022-09-24T12:23:24;3.70;;;3.25;;
45932;SDS011;51011;46.790;17.184;2022-09-24T12:25:52;4.28;;;3.63;;
45932;SDS011;51011;46.790;17.184;2022-09-24T12:28:19;8.95;;;3.92;;
45932;SDS011;51011;46.790;17.184;2022-09-24T12:31:12;6.45;;;3.63;;
45932;SDS011;51011;46.790;17.184;2022-09-24T12:34:13;5.78;;;4.03;;
45932;SDS011;51011;46.790;17.184;2022-09-24T12:37:10;4.25;;;3.53;;
45932;SDS011;51011;46.790;17.184;2022-09-24T12:39:41;3.58;;;3.10;;
45932;SDS011;51011;46.790;17.184;2022-09-24T12:42:12;5.68;;;3.60;;
45932;SDS011;51011;46.790;17.184;2022-09-24T12:44:51;5.90;;;4.20;;
45932;SDS011;51011;46.790;17.184;2022-09-24T12:47:19;4.22;;;3.55;;
45932;SDS011;51011;46.790;17.184;2022-09-24T12:49:48;4.70;;;3.75;;
45932;SDS011;51011;46.790;17.184;2022-09-24T12:52:20;4.70;;;3.30;;
45932;SDS011;51011;46.790;17.184;2022-09-24T12:54:56;5.97;;;3.38;;
45932;SDS011;51011;46.790;17.184;2022-09-24T12:57:33;4.50;;;3.50;;
45932;SDS011;51011;46.790;17.184;2022-09-24T13:00:01;5.47;;;3.60;;
45932;SDS011;51011;46.790;17.184;2022-09-24T13:02:50;4.35;;;3.22;;
45932;SDS011;51011;46.790;17.184;2022-09-24T13:10:57;5.80;;;3.65;;
45932;SDS011;51011;46.790;17.184;2022-09-24T13:13:30;5.55;;;3.85;;
45932;SDS011;51011;46.790;17.184;2022-09-24T13:15:59;4.72;;;3.70;;
45932;SDS011;51011;46.790;17.184;2022-09-24T13:18:26;6.65;;;4.72;;
45932;SDS011;51011;46.790;17.184;2022-09-24T13:20:56;6.65;;;3.70;;
45932;SDS011;51011;46.790;17.184;2022-09-24T13:26:03;7.13;;;3.95;;
45932;SDS011;51011;46.790;17.184;2022-09-24T13:28:31;4.85;;;3.38;;
45932;SDS011;51011;46.790;17.184;2022-09-24T13:33:47;4.93;;;3.20;;
45932;SDS011;51011;46.790;17.184;2022-09-24T13:36:17;5.25;;;3.13;;
45932;SDS011;51011;46.790;17.184;2022-09-24T13:42:07;4.28;;;3.40;;
45932;SDS011;51011;46.790;17.184;2022-09-24T13:44:39;4.90;;;3.03;;
45932;SDS011;51011;46.790;17.184;2022-09-24T13:49:46;6.95;;;3.78;;
45932;SDS011;51011;46.790;17.184;2022-09-24T13:52:32;3.70;;;3.22;;
45932;SDS011;51011;46.790;17.184;2022-09-24T13:55:21;4.93;;;2.83;;
45932;SDS011;51011;46.790;17.184;2022-09-24T13:57:47;5.07;;;3.38;;
45932;SDS011;51011;46.790;17.184;2022-09-24T14:00:20;6.75;;;3.33;;
45932;SDS011;51011;46.790;17.184;2022-09-24T14:03:21;4.60;;;3.30;;
45932;SDS011;51011;46.790;17.184;2022-09-24T14:05:52;8.07;;;3.50;;
45932;SDS011;51011;46.790;17.184;2022-09-24T14:08:19;5.47;;;3.30;;
45932;SDS011;51011;46.790;17.184;2022-09-24T14:10:46;5.13;;;3.17;;
45932;SDS011;51011;46.790;17.184;2022-09-24T14:13:16;4.55;;;2.60;;
45932;SDS011;51011;46.790;17.184;2022-09-24T14:18:33;3.65;;;2.72;;
45932;SDS011;51011;46.790;17.184;2022-09-24T14:21:06;4.07;;;2.40;;
45932;SDS011;51011;46.790;17.184;2022-09-24T14:24:00;6.32;;;2.60;;
45932;SDS011;51011;46.790;17.184;2022-09-24T14:26:29;6.28;;;2.97;;
45932;SDS011;51011;46.790;17.184;2022-09-24T14:28:57;5.57;;;2.70;;
45932;SDS011;51011;46.790;17.184;2022-09-24T14:31:24;4.22;;;3.08;;
45932;SDS011;51011;46.790;17.184;2022-09-24T14:33:49;6.50;;;3.20;;
45932;SDS011;51011;46.790;17.184;2022-09-24T14:36:15;9.63;;;5.28;;
45932;SDS011;51011;46.790;17.184;2022-09-24T14:38:55;10.95;;;7.22;;
45932;SDS011;51011;46.790;17.184;2022-09-24T14:41:24;9.13;;;6.35;;
45932;SDS011;51011;46.790;17.184;2022-09-24T14:44:14;5.93;;;4.20;;
45932;SDS011;51011;46.790;17.184;2022-09-24T14:46:49;4.18;;;2.95;;
45932;SDS011;51011;46.790;17.184;2022-09-24T14:51:56;4.78;;;3.47;;
45932;SDS011;51011;46.790;17.184;2022-09-24T14:54:26;4.85;;;3.10;;
45932;SDS011;51011;46.790;17.184;2022-09-24T14:59:42;5.50;;;2.88;;
45932;SDS011;51011;46.790;17.184;2022-09-24T15:02:54;4.72;;;3.20;;
45932;SDS011;51011;46.790;17.184;2022-09-24T15:04:56;5.03;;;3.03;;
45932;SDS011;51011;46.790;17.184;2022-09-24T15:07:24;3.40;;;2.88;;
45932;SDS011;51011;46.790;17.184;2022-09-24T15:09:52;5.90;;;3.35;;
45932;SDS011;51011;46.790;17.184;2022-09-24T15:12:21;12.27;;;5.70;;
45932;SDS011;51011;46.790;17.184;2022-09-24T15:17:42;4.70;;;3.50;;
45932;SDS011;51011;46.790;17.184;2022-09-24T15:20:09;4.95;;;3.03;;
45932;SDS011;51011;46.790;17.184;2022-09-24T15:22:36;4.47;;;3.17;;
45932;SDS011;51011;46.790;17.184;2022-09-24T15:25:02;5.60;;;3.30;;
45932;SDS011;51011;46.790;17.184;2022-09-24T15:27:29;6.85;;;3.40;;
45932;SDS011;51011;46.790;17.184;2022-09-24T15:29:56;6.03;;;3.70;;
45932;SDS011;51011;46.790;17.184;2022-09-24T15:32:27;3.70;;;3.20;;
45932;SDS011;51011;46.790;17.184;2022-09-24T15:34:55;5.00;;;3.30;;
45932;SDS011;51011;46.790;17.184;2022-09-24T15:37:21;5.75;;;3.20;;
45932;SDS011;51011;46.790;17.184;2022-09-24T15:39:49;5.22;;;3.20;;
45932;SDS011;51011;46.790;17.184;2022-09-24T15:42:19;7.28;;;3.10;;
45932;SDS011;51011;46.790;17.184;2022-09-24T15:44:46;4.28;;;3.20;;
45932;SDS011;51011;46.790;17.184;2022-09-24T15:47:12;5.80;;;3.33;;
45932;SDS011;51011;46.790;17.184;2022-09-24T15:49:38;4.43;;;3.20;;
45932;SDS011;51011;46.790;17.184;2022-09-24T15:54:55;6.32;;;3.65;;
45932;SDS011;51011;46.790;17.184;2022-09-24T15:57:22;6.40;;;3.63;;
45932;SDS011;51011;46.790;17.184;2022-09-24T15:59:48;5.38;;;3.80;;
45932;SDS011;51011;46.790;17.184;2022-09-24T16:02:36;6.03;;;3.47;;
45932;SDS011;51011;46.790;17.184;2022-09-24T16:05:01;7.00;;;3.70;;
45932;SDS011;51011;46.790;17.184;2022-09-24T16:07:26;6.13;;;3.72;;
45932;SDS011;51011;46.790;17.184;2022-09-24T16:09:52;4.97;;;3.70;;
45932;SDS011;51011;46.790;17.184;2022-09-24T16:12:18;6.07;;;3.88;;
45932;SDS011;51011;46.790;17.184;2022-09-24T16:14:44;5.75;;;3.85;;
45932;SDS011;51011;46.790;17.184;2022-09-24T16:17:10;68.95;;;8.38;;
45932;SDS011;51011;46.790;17.184;2022-09-24T16:19:36;6.07;;;4.13;;
45932;SDS011;51011;46.790;17.184;2022-09-24T16:22:01;5.70;;;3.95;;
45932;SDS011;51011;46.790;17.184;2022-09-24T16:24:30;10.57;;;4.57;;
45932;SDS011;51011;46.790;17.184;2022-09-24T16:26:56;6.53;;;4.90;;
45932;SDS011;51011;46.790;17.184;2022-09-24T16:29:23;6.82;;;4.78;;
45932;SDS011;51011;46.790;17.184;2022-09-24T16:31:48;7.53;;;4.85;;
45932;SDS011;51011;46.790;17.184;2022-09-24T16:34:14;5.63;;;4.20;;
45932;SDS011;51011;46.790;17.184;2022-09-24T16:36:39;7.22;;;4.55;;
45932;SDS011;51011;46.790;17.184;2022-09-24T16:39:05;5.70;;;4.00;;
45932;SDS011;51011;46.790;17.184;2022-09-24T16:41:30;5.72;;;4.15;;
45932;SDS011;51011;46.790;17.184;2022-09-24T16:44:01;8.90;;;4.50;;
45932;SDS011;51011;46.790;17.184;2022-09-24T16:46:27;8.23;;;4.88;;
45932;SDS011;51011;46.790;17.184;2022-09-24T16:48:52;10.90;;;6.55;;
45932;SDS011;51011;46.790;17.184;2022-09-24T16:51:18;10.00;;;6.22;;
45932;SDS011;51011;46.790;17.184;2022-09-24T16:53:44;11.43;;;6.50;;
45932;SDS011;51011;46.790;17.184;2022-09-24T16:56:14;9.65;;;5.90;;
45932;SDS011;51011;46.790;17.184;2022-09-24T16:58:42;9.65;;;5.78;;
45932;SDS011;51011;46.790;17.184;2022-09-24T17:01:09;8.13;;;4.60;;
45932;SDS011;51011;46.790;17.184;2022-09-24T17:03:36;6.63;;;3.97;;
45932;SDS011;51011;46.790;17.184;2022-09-24T17:06:02;6.78;;;3.70;;